Time;durP1;ratioP1;P1;durP2;ratioP2;P2;SDS_P1;SDS_P2;PMS_P1;PMS_P2;Temp;Humidity;BMP_temperature;BMP_pressure;BME280_temperature;BME280_humidity;BME280_pressure;Samples;Min_cycle;Max_cycle;Signal;HPM_P1;HPM_P2
2021/05/21 00:02:05;;;;;;;30.17;8.05;;;13.90;99.90;;;14.15;68.71;100474.59;5094684;28;20118;-77
2021/05/21 00:04:33;;;;;;;29.83;7.53;;;13.90;99.90;;;13.56;69.09;100380.38;5094407;28;20048;-76
2021/05/21 00:07:01;;;;;;;32.72;7.82;;;13.90;99.90;;;14.06;69.42;100487.25;5093828;28;20048;-77
2021/05/21 00:09:29;;;;;;;35.15;8.55;;;13.80;99.90;;;14.02;70.07;100480.25;5094533;28;20051;-76
2021/05/21 00:11:57;;;;;;;36.35;9.45;;;13.70;99.90;;;13.93;70.10;100484.03;5094493;28;20093;-77
2021/05/21 00:14:26;;;;;;;31.38;7.50;;;13.70;99.90;;;13.85;69.83;100471.81;5094100;28;20098;-77
2021/05/21 00:16:54;;;;;;;33.20;7.38;;;13.60;99.90;;;13.70;69.54;100459.78;5076150;28;20048;-77
2021/05/21 00:19:22;;;;;;;30.85;8.90;;;13.50;99.90;;;13.81;69.91;100467.47;5093791;28;20044;-77
2021/05/21 00:21:50;;;;;;;28.27;7.55;;;13.60;99.90;;;13.72;69.58;100454.41;5093713;28;20055;-77
2021/05/21 00:24:18;;;;;;;28.20;7.65;;;13.40;99.90;;;13.66;69.87;100454.56;5093954;28;20047;-77
2021/05/21 00:26:47;;;;;;;30.23;7.60;;;13.40;99.90;;;13.43;70.12;100447.97;5093621;28;20062;-77
2021/05/21 00:29:15;;;;;;;34.45;8.07;;;13.20;99.90;;;13.42;71.14;100446.25;5094199;28;20081;-77
2021/05/21 00:31:44;;;;;;;33.05;8.23;;;13.20;99.90;;;13.45;71.77;100447.97;5093856;28;20043;-77
2021/05/21 00:34:12;;;;;;;30.58;7.60;;;13.10;99.90;;;13.48;71.83;100439.91;5093859;28;20047;-78
2021/05/21 00:36:41;;;;;;;36.67;8.15;;;13.10;99.90;;;13.18;72.43;100419.38;5093818;28;20048;-78
2021/05/21 00:39:09;;;;;;;29.58;8.23;;;13.10;99.90;;;13.38;73.01;100438.38;5093736;28;20048;-78
2021/05/21 00:41:37;;;;;;;30.80;8.75;;;13.10;99.90;;;13.34;73.30;100428.72;5093629;28;20047;-77
2021/05/21 00:44:05;;;;;;;35.85;8.45;;;13.00;99.90;;;13.27;73.23;100429.78;5093717;28;20048;-78
2021/05/21 00:46:33;;;;;;;35.50;8.65;;;13.00;99.90;;;13.30;73.92;100414.66;5093540;28;20040;-77
2021/05/21 00:49:02;;;;;;;40.90;9.07;;;13.00;99.90;;;13.35;74.43;100431.38;5075470;28;20105;-77
2021/05/21 00:51:30;;;;;;;31.95;8.68;;;13.00;99.90;;;13.34;74.60;100408.34;5093443;28;20090;-78
2021/05/21 00:53:59;;;;;;;39.47;9.02;;;13.00;99.90;;;13.37;75.14;100407.41;5093580;28;20051;-78
2021/05/21 00:56:28;;;;;;;33.45;8.40;;;13.10;99.90;;;13.40;75.40;100407.34;5075226;28;20047;-78
2021/05/21 00:58:57;;;;;;;38.08;8.93;;;13.10;99.90;;;13.36;75.50;100389.72;5093178;28;20051;-77
2021/05/21 01:01:30;;;;;;;40.70;9.02;;;13.10;99.90;;;13.39;75.47;100385.19;5093402;28;20040;-77
2021/05/21 01:03:58;;;;;;;43.50;9.68;;;13.10;99.90;;;13.41;75.51;100391.34;5093446;28;20370;-77
2021/05/21 01:06:27;;;;;;;43.88;9.93;;;13.10;99.90;;;13.35;75.52;100388.88;5074902;28;20051;-77
2021/05/21 01:08:55;;;;;;;36.63;8.80;;;13.10;99.90;;;13.36;75.55;100363.16;5093372;28;20126;-77
2021/05/21 01:11:24;;;;;;;38.20;10.00;;;13.10;99.90;;;13.33;75.39;100360.59;5093316;28;20054;-77
2021/05/21 01:13:53;;;;;;;39.22;8.70;;;13.10;99.90;;;13.23;75.24;100344.00;5093556;28;20048;-78
2021/05/21 01:16:21;;;;;;;51.42;9.52;;;13.10;99.90;;;13.37;74.64;100346.31;5093218;28;20401;-77
2021/05/21 01:18:48;;;;;;;33.85;9.38;;;13.10;99.90;;;13.37;74.60;100351.63;5092514;28;20093;-77
2021/05/21 01:21:17;;;;;;;37.97;9.20;;;13.10;99.90;;;13.40;74.60;100347.13;5093105;28;20424;-77
2021/05/21 01:23:45;;;;;;;32.53;8.70;;;13.10;99.90;;;13.38;74.79;100348.94;5093175;28;20048;-77
2021/05/21 01:26:14;;;;;;;43.22;9.73;;;13.10;99.90;;;13.41;74.69;100362.13;5093097;28;20043;-77
2021/05/21 01:28:42;;;;;;;33.20;8.25;;;13.10;99.90;;;13.41;74.62;100342.69;5092716;28;20143;-78
2021/05/21 01:31:10;;;;;;;37.85;8.95;;;13.10;99.90;;;13.35;74.66;100333.09;5093339;28;20036;-77
2021/05/21 01:33:38;;;;;;;45.35;9.77;;;13.10;99.90;;;13.35;74.27;100327.78;5093008;28;20067;-77
2021/05/21 01:36:06;;;;;;;45.13;9.68;;;13.10;99.90;;;13.30;74.23;100319.03;5092971;28;20098;-77
2021/05/21 01:38:37;;;;;;;35.90;9.60;;;13.10;99.90;;;13.44;74.17;100330.19;5092960;28;20040;-77
2021/05/21 01:41:05;;;;;;;;;;;13.10;99.90;;;13.47;73.95;100330.09;5093273;28;20089;-77
2021/05/21 01:43:33;;;;;;;31.55;8.68;;;13.10;99.90;;;13.44;73.68;100338.16;5092867;28;19924;-77
2021/05/21 01:46:01;;;;;;;34.58;9.57;;;13.20;99.90;;;13.28;73.83;100306.69;5092936;28;20052;-77
2021/05/21 01:48:29;;;;;;;37.63;8.93;;;13.10;99.90;;;13.46;73.62;100324.84;5092662;28;20052;-77
2021/05/21 01:51:03;;;;;;;45.47;10.35;;;13.10;99.90;;;13.34;73.42;100318.03;5092586;28;20097;-77
2021/05/21 01:53:35;;;;;;;34.95;8.95;;;13.10;99.90;;;13.40;73.53;100319.66;5092633;28;20444;-77
2021/05/21 01:56:03;;;;;;;34.10;8.82;;;13.10;99.90;;;13.37;73.17;100319.75;5092743;28;20051;-77
2021/05/21 01:58:31;;;;;;;41.08;9.02;;;13.10;99.90;;;13.40;73.50;100317.91;5092808;28;20106;-77
2021/05/21 02:00:59;;;;;;;34.85;9.25;;;13.10;99.90;;;13.27;73.00;100313.81;5074481;28;20134;-77
2021/05/21 02:03:29;;;;;;;40.83;9.60;;;13.00;99.90;;;13.15;72.89;100303.47;5092725;28;20044;-77
2021/05/21 02:05:58;;;;;;;40.83;8.70;;;12.90;99.90;;;13.17;73.08;100301.66;5092642;28;20052;-77
2021/05/21 02:08:28;;;;;;;33.83;8.68;;;12.90;99.90;;;13.26;73.16;100304.06;5092727;28;20082;-77
2021/05/21 02:10:57;;;;;;;33.85;8.68;;;13.00;99.90;;;13.29;72.89;100301.34;5092660;28;20044;-77
2021/05/21 02:13:24;;;;;;;37.58;8.77;;;13.00;99.90;;;13.20;73.28;100298.91;5092622;28;20478;-77
2021/05/21 02:15:52;;;;;;;34.08;8.80;;;12.90;99.90;;;13.20;73.07;100287.44;5092566;28;20127;-77
2021/05/21 02:18:20;;;;;;;39.65;8.93;;;12.90;99.90;;;13.13;73.29;100286.69;5092567;28;20047;-77
2021/05/21 02:20:48;;;;;;;37.63;8.60;;;12.80;99.90;;;13.17;73.24;100279.53;5092238;28;20511;-77
2021/05/21 02:23:17;;;;;;;37.13;9.32;;;12.90;99.90;;;13.09;73.22;100284.13;5092567;28;20040;-77
2021/05/21 02:25:47;;;;;;;39.67;8.27;;;12.80;99.90;;;13.06;72.75;100279.81;5092529;28;20040;-77
2021/05/21 02:28:16;;;;;;;32.85;8.45;;;12.80;99.90;;;13.09;72.49;100271.75;5092528;28;20559;-77
2021/05/21 02:30:44;;;;;;;34.35;8.88;;;12.80;99.90;;;13.06;72.38;100269.19;5096227;28;20043;-77
2021/05/21 02:33:12;;;;;;;35.45;8.25;;;12.80;99.90;;;12.99;72.20;100270.19;5096130;28;20067;-76
2021/05/21 02:35:40;;;;;;;42.92;9.40;;;12.70;99.90;;;13.02;72.41;100272.78;5095849;28;20044;-76
2021/05/21 02:38:08;;;;;;;43.65;9.30;;;12.70;99.90;;;13.04;72.48;100265.69;5096051;28;20044;-77
2021/05/21 02:40:36;;;;;;;33.08;8.50;;;12.70;99.90;;;12.97;72.11;100250.75;5095983;28;20040;-77
2021/05/21 02:43:04;;;;;;;37.17;9.15;;;12.70;99.90;;;12.97;72.36;100265.84;5077858;28;20056;-76
2021/05/21 02:45:33;;;;;;;28.77;8.20;;;12.70;99.90;;;12.90;72.51;100249.16;5095883;28;20036;-76
2021/05/21 02:48:01;;;;;;;40.58;7.90;;;12.70;99.90;;;12.98;72.65;100268.44;5095625;28;20052;-76
2021/05/21 02:50:29;;;;;;;33.55;8.88;;;12.70;99.90;;;12.90;73.00;100264.22;5095865;28;20040;-77
2021/05/21 02:52:57;;;;;;;40.35;8.40;;;12.60;99.90;;;12.96;72.90;100253.47;5095786;28;20044;-76
2021/05/21 02:55:25;;;;;;;29.85;8.07;;;12.70;99.90;;;13.00;72.74;100263.09;5095668;28;20048;-77
2021/05/21 02:57:53;;;;;;;33.40;8.05;;;12.70;99.90;;;12.86;71.47;100258.13;5095726;28;20051;-77
2021/05/21 03:00:21;;;;;;;31.17;8.07;;;12.60;99.90;;;12.79;71.34;100266.25;5095567;28;20101;-77
2021/05/21 03:02:50;;;;;;;37.20;7.85;;;12.50;99.90;;;12.85;71.29;100240.47;5095249;28;20040;-76
2021/05/21 03:05:22;;;;;;;31.48;8.73;;;12.60;99.90;;;12.74;70.98;100188.56;5095202;28;20527;-77
2021/05/21 03:07:53;;;;;;;30.77;7.75;;;12.60;99.90;;;12.76;70.66;100219.44;5077564;28;20051;-77
2021/05/21 03:10:22;;;;;;;37.17;8.02;;;12.60;99.90;;;12.86;71.00;100231.56;5095260;28;20044;-77
2021/05/21 03:12:50;;;;;;;34.38;7.53;;;12.60;99.90;;;12.82;70.67;100237.84;5095356;28;20044;-77
2021/05/21 03:15:19;;;;;;;30.65;8.10;;;12.60;99.90;;;12.76;71.21;100239.78;5077147;28;20501;-77
2021/05/21 03:17:47;;;;;;;29.73;8.63;;;12.50;99.90;;;12.86;71.22;100239.53;5095066;28;20493;-77
2021/05/21 03:20:16;;;;;;;30.83;8.20;;;12.60;99.90;;;12.92;71.31;100242.06;5094989;28;20101;-77
2021/05/21 03:22:44;;;;;;;26.80;7.65;;;12.60;99.90;;;12.89;71.45;100243.91;5095206;28;20048;-77
2021/05/21 03:25:13;;;;;;;30.80;7.85;;;12.60;99.90;;;12.83;71.35;100236.97;5095250;28;20123;-77
2021/05/21 03:27:41;;;;;;;27.83;7.72;;;12.60;99.90;;;12.83;71.46;100228.13;5095113;28;20184;-77
2021/05/21 03:30:11;;;;;;;41.58;10.63;;;12.60;99.90;;;12.92;72.21;100235.84;5094967;28;20451;-77
2021/05/21 03:32:40;;;;;;;32.63;8.30;;;12.60;99.90;;;12.97;72.41;100234.00;5095062;28;20108;-77
2021/05/21 03:35:09;;;;;;;28.67;7.57;;;12.70;99.90;;;12.92;72.82;100209.31;5094988;28;20086;-77
2021/05/21 03:37:38;;;;;;;28.58;8.00;;;12.70;99.90;;;12.81;73.16;100206.06;5094706;28;20501;-77
2021/05/21 03:40:07;;;;;;;42.00;9.70;;;12.60;99.90;;;12.84;73.51;100211.28;5076245;28;20048;-77
2021/05/21 03:42:35;;;;;;;28.83;9.13;;;12.60;99.90;;;12.76;73.56;100189.34;5094813;28;20061;-77
2021/05/21 03:45:06;;;;;;;35.13;7.97;;;12.60;99.90;;;12.86;73.80;100191.75;5094734;28;20059;-77
2021/05/21 03:47:35;;;;;;;33.50;8.35;;;12.60;99.90;;;12.91;73.81;100224.34;5094831;28;20078;-77
2021/05/21 03:50:04;;;;;;;33.65;8.60;;;12.60;99.90;;;12.89;73.56;100202.28;5094761;28;20043;-77
2021/05/21 03:52:32;;;;;;;34.70;8.75;;;12.60;99.90;;;12.90;73.72;100212.00;5076471;28;20048;-77
2021/05/21 03:55:03;;;;;;;38.30;9.20;;;12.60;99.90;;;12.92;73.22;100182.78;5076380;28;20063;-77
2021/05/21 03:57:31;;;;;;;31.80;8.30;;;12.70;99.90;;;12.81;73.79;100183.06;5094196;28;20439;-77
2021/05/21 03:59:59;;;;;;;36.92;8.88;;;12.60;99.90;;;13.00;73.73;100191.41;5076252;28;20497;-77
2021/05/21 04:02:27;;;;;;;29.90;8.90;;;12.70;99.90;;;12.88;72.89;100189.06;5094699;28;20101;-77
2021/05/21 04:04:56;;;;;;;27.08;7.82;;;12.70;99.90;;;13.05;73.24;100201.03;5075990;28;20121;-77
2021/05/21 04:07:24;;;;;;;33.78;8.57;;;12.80;99.90;;;13.07;73.20;100193.91;5094409;28;20052;-77
2021/05/21 04:09:52;;;;;;;33.45;8.10;;;12.80;99.90;;;12.98;72.39;100183.50;5094058;28;20123;-77
2021/05/21 04:12:20;;;;;;;32.20;8.30;;;12.70;99.90;;;12.50;72.44;100065.34;5094222;28;20040;-77
2021/05/21 04:14:50;;;;;;;33.38;8.07;;;12.80;99.90;;;13.04;72.22;100155.97;5094164;28;20044;-77
2021/05/21 04:17:19;;;;;;;26.65;8.25;;;12.80;99.90;;;13.01;72.10;100140.94;5076021;28;20407;-78
2021/05/21 04:19:48;;;;;;;33.15;8.15;;;12.80;99.90;;;12.86;71.29;100167.00;5094419;28;20052;-77
2021/05/21 04:22:16;;;;;;;31.42;8.40;;;12.70;99.90;;;13.02;71.03;100147.13;5075812;28;20048;-77
2021/05/21 04:24:44;;;;;;;30.88;9.05;;;12.80;99.90;;;13.05;70.94;100139.97;5093987;28;20048;-77
2021/05/21 04:27:12;;;;;;;30.23;8.05;;;12.80;99.90;;;13.06;70.89;100149.72;5094137;28;20122;-77
2021/05/21 04:29:42;;;;;;;37.63;8.68;;;12.80;99.90;;;13.07;70.56;100146.13;5094010;28;20040;-77
2021/05/21 04:32:09;;;;;;;31.00;8.00;;;12.90;99.90;;;12.45;70.67;100033.59;5093896;28;20047;-77
2021/05/21 04:34:37;;;;;;;38.67;8.43;;;12.90;99.90;;;13.21;70.64;100146.63;5093604;28;20397;-77
2021/05/21 04:37:06;;;;;;;31.00;7.50;;;12.90;99.90;;;13.20;70.18;100149.34;5093516;28;20036;-77
2021/05/21 04:39:34;;;;;;;30.48;7.93;;;13.00;99.90;;;13.19;70.49;100159.09;5093482;28;20040;-77
2021/05/21 04:42:02;;;;;;;31.05;7.88;;;13.00;99.90;;;13.19;70.69;100150.25;5093334;28;20036;-77
2021/05/21 04:44:30;;;;;;;27.60;7.50;;;13.00;99.90;;;13.12;71.03;100128.31;5093670;28;20036;-77
2021/05/21 04:46:59;;;;;;;28.73;8.15;;;13.00;99.90;;;13.18;70.65;100125.47;5075428;28;20062;-77
2021/05/21 04:49:33;;;;;;;27.85;7.70;;;12.90;99.90;;;13.18;71.01;100117.50;5093295;28;20122;-77
2021/05/21 04:52:04;;;;;;;34.50;8.05;;;13.00;99.90;;;13.04;70.12;100111.72;5093086;28;20048;-77
2021/05/21 04:54:33;;;;;;;25.52;7.38;;;12.90;99.90;;;12.89;69.95;100082.00;5075546;28;20048;-77
2021/05/21 04:57:01;;;;;;;25.10;8.15;;;12.80;99.90;;;13.13;70.31;100094.63;5093634;28;20040;-77
2021/05/21 04:59:30;;;;;;;32.95;7.63;;;12.80;99.90;;;13.05;69.41;100123.16;5093084;28;20048;-76
2021/05/21 05:01:59;;;;;;;29.83;7.90;;;12.80;99.90;;;13.02;69.67;100131.19;5075114;28;20047;-76
2021/05/21 05:04:27;;;;;;;30.30;8.20;;;12.80;99.90;;;13.03;69.79;100091.38;5075349;28;20094;-76
2021/05/21 05:06:55;;;;;;;32.22;7.78;;;12.80;99.90;;;13.06;69.79;100120.50;5092887;28;20056;-76
2021/05/21 05:09:23;;;;;;;30.45;8.10;;;12.80;99.90;;;12.99;69.75;100094.97;5093564;28;20093;-76
2021/05/21 05:11:51;;;;;;;30.85;7.85;;;12.80;99.90;;;13.05;69.83;100093.97;5093410;28;20048;-76
2021/05/21 05:14:19;;;;;;;26.70;7.40;;;12.80;99.90;;;13.05;69.45;100092.19;5093531;28;20378;-76
2021/05/21 05:16:47;;;;;;;26.83;7.93;;;12.80;99.90;;;13.07;69.33;100077.09;5093174;28;20040;-77
2021/05/21 05:19:16;;;;;;;37.90;8.30;;;12.90;99.90;;;13.13;69.53;100122.06;5093252;28;20044;-76
2021/05/21 05:21:45;;;;;;;34.55;8.50;;;12.90;99.90;;;13.15;69.36;100104.31;5092820;28;20093;-77
2021/05/21 05:24:16;;;;;;;38.50;7.95;;;12.90;99.90;;;13.16;68.94;100095.41;5074416;28;20051;-77
2021/05/21 05:26:45;;;;;;;31.73;8.20;;;12.90;99.90;;;13.15;68.66;100076.88;5074967;28;20059;-76
2021/05/21 05:29:13;;;;;;;31.92;8.02;;;12.90;99.90;;;13.05;68.23;100084.22;5074858;28;20048;-76
2021/05/21 05:31:46;;;;;;;37.67;8.27;;;12.80;99.90;;;13.06;67.95;100075.38;5093293;28;20052;-76
2021/05/21 05:34:15;;;;;;;31.75;8.02;;;12.80;99.90;;;13.10;68.59;100100.94;5092746;28;20482;-76
2021/05/21 05:36:44;;;;;;;24.17;8.35;;;12.90;99.90;;;13.11;68.47;100053.97;5093358;28;20048;-77
2021/05/21 05:39:12;;;;;;;33.75;7.82;;;12.80;99.90;;;13.13;68.05;100045.06;5092930;28;20079;-76
2021/05/21 05:41:40;;;;;;;26.23;7.72;;;12.90;99.90;;;12.77;68.29;99994.75;5092620;28;20071;-76
2021/05/21 05:44:08;;;;;;;29.52;8.20;;;12.90;99.90;;;13.21;68.16;100068.75;5092869;28;20036;-76
2021/05/21 05:46:36;;;;;;;35.75;7.43;;;12.90;99.90;;;13.10;68.02;100054.91;5092878;28;20036;-75
2021/05/21 05:49:04;;;;;;;32.00;8.20;;;12.90;99.90;;;13.07;67.74;100076.22;5092792;28;20106;-76
2021/05/21 05:51:33;;;;;;;28.58;7.88;;;12.80;99.90;;;13.12;67.81;100053.97;5092469;28;20375;-76
2021/05/21 05:54:01;;;;;;;33.05;8.73;;;12.80;99.90;;;13.04;67.90;100050.66;5092661;28;20046;-76
2021/05/21 05:56:29;;;;;;;32.47;8.43;;;12.90;99.90;;;13.17;68.31;100053.81;5093024;28;20052;-76
2021/05/21 05:58:57;;;;;;;33.17;8.43;;;12.90;99.90;;;13.19;68.29;100082.06;5092984;28;20055;-75
2021/05/21 06:01:25;;;;;;;28.95;7.80;;;13.00;99.90;;;13.28;68.27;100103.06;5074836;28;20048;-77
2021/05/21 06:03:53;;;;;;;34.60;8.20;;;13.00;99.90;;;13.34;68.06;100048.88;5093869;28;20040;-74
2021/05/21 06:06:21;;;;;;;29.65;8.23;;;13.10;99.90;;;13.40;68.10;100056.69;5095933;28;20051;-74
2021/05/21 06:08:58;;;;;;;31.60;7.80;;;13.10;99.90;;;13.31;67.54;100055.19;5096734;28;20090;-78
2021/05/21 06:11:26;;;;;;;35.00;8.52;;;13.10;99.90;;;13.31;67.79;100039.25;5078379;28;20054;-76
2021/05/21 06:13:55;;;;;;;29.13;8.05;;;13.10;99.90;;;13.39;68.13;100079.72;5078070;28;20040;-76
2021/05/21 06:16:24;;;;;;;30.17;7.50;;;13.10;99.90;;;13.39;67.62;100062.94;5096145;28;20052;-73
2021/05/21 06:18:52;;;;;;;34.22;8.43;;;13.20;99.90;;;13.43;67.64;100038.88;5096310;28;20047;-75
2021/05/21 06:21:20;;;;;;;32.97;7.97;;;13.20;99.90;;;13.37;67.23;100044.38;5096371;28;20051;-76
2021/05/21 06:23:49;;;;;;;33.50;7.95;;;13.20;99.90;;;13.41;67.83;100061.09;5078037;28;20193;-73
2021/05/21 06:26:40;;;;;;;34.75;9.10;;;13.10;99.90;;;13.35;67.32;100051.53;5096484;28;20044;-73
2021/05/21 06:29:08;;;;;;;25.10;7.60;;;13.10;99.90;;;13.33;67.22;100076.38;5096079;28;20071;-71
2021/05/21 06:31:36;;;;;;;36.60;8.15;;;13.10;99.90;;;13.38;67.63;100072.66;5096210;28;20056;-74
2021/05/21 06:34:04;;;;;;;35.38;8.15;;;13.10;99.90;;;13.39;67.56;100042.53;5095910;28;20481;-73
2021/05/21 06:36:32;;;;;;;28.35;8.27;;;13.10;99.90;;;13.33;67.05;100049.81;5095843;28;20343;-74
2021/05/21 06:39:00;;;;;;;31.65;8.02;;;13.10;99.90;;;13.56;67.21;100076.59;5096074;28;20146;-76
2021/05/21 06:41:28;;;;;;;26.70;8.15;;;13.20;99.90;;;13.70;66.56;100058.47;5095800;28;20040;-69
2021/05/21 06:43:57;;;;;;;26.50;7.45;;;13.40;99.90;;;13.84;66.10;100034.97;5095496;28;20122;-74
2021/05/21 06:46:25;;;;;;;34.33;7.78;;;13.60;99.90;;;13.88;66.11;100030.44;5095999;28;20105;-72
2021/05/21 06:48:53;;;;;;;30.70;6.72;;;13.60;99.90;;;13.70;66.19;100044.28;5095820;28;20058;-73
2021/05/21 06:51:22;;;;;;;24.95;7.43;;;13.50;99.90;;;13.73;66.71;100041.53;5095751;28;20040;-75
2021/05/21 06:53:50;;;;;;;32.28;8.85;;;13.50;99.90;;;13.72;66.68;100042.47;5095915;28;20079;-78
2021/05/21 06:56:19;;;;;;;32.47;8.30;;;13.50;99.90;;;13.75;68.24;100056.53;5095367;28;20051;-79
2021/05/21 06:58:47;;;;;;;34.67;7.45;;;13.50;99.90;;;13.45;71.17;100062.75;5077784;28;20048;-78
2021/05/21 07:01:16;;;;;;;35.20;8.30;;;13.30;99.90;;;13.26;71.79;100054.41;5077590;28;20044;-77
2021/05/21 07:03:44;;;;;;;35.92;8.20;;;13.00;99.90;;;13.07;71.60;100037.28;5077419;28;20044;-78
2021/05/21 07:06:12;;;;;;;31.15;7.65;;;12.90;99.90;;;13.08;71.28;100067.34;5095607;28;20059;-77
2021/05/21 07:08:40;;;;;;;32.65;7.93;;;12.90;99.90;;;13.07;71.73;100055.84;5095475;28;20051;-78
2021/05/21 07:11:08;;;;;;;29.48;8.48;;;12.90;99.90;;;13.10;71.05;100044.28;5095496;28;20052;-78
2021/05/21 07:13:36;;;;;;;28.58;7.72;;;12.80;99.90;;;13.20;71.19;100051.09;5095490;28;20048;-78
2021/05/21 07:16:04;;;;;;;32.03;8.13;;;12.90;99.90;;;13.31;70.51;100056.97;5093960;28;20059;-77
2021/05/21 07:18:33;;;;;;;29.02;8.20;;;13.00;99.90;;;13.41;70.32;100039.84;5095399;28;20041;-76
2021/05/21 07:21:02;;;;;;;33.22;8.15;;;13.10;99.90;;;13.36;69.77;100071.84;5094904;28;20040;-80
2021/05/21 07:23:31;;;;;;;35.53;8.90;;;13.10;99.90;;;12.57;69.80;99916.56;5095201;28;20059;-77
2021/05/21 07:25:59;;;;;;;30.63;8.52;;;13.10;99.90;;;13.39;71.13;100062.94;5094974;28;20099;-76
2021/05/21 07:28:27;;;;;;;31.63;8.93;;;13.10;99.90;;;13.36;71.20;100069.19;5094840;28;20043;-76
2021/05/21 07:30:55;;;;;;;30.60;8.85;;;13.10;99.90;;;13.26;72.13;100062.38;5095055;28;20044;-76
2021/05/21 07:33:23;;;;;;;28.23;7.72;;;13.00;99.90;;;13.38;72.77;100062.06;5076887;28;20047;-74
2021/05/21 07:35:52;;;;;;;29.75;7.97;;;13.10;99.90;;;13.41;73.35;100053.13;5076810;28;20497;-73
2021/05/21 07:38:20;;;;;;;32.28;8.40;;;13.10;99.90;;;13.46;73.79;100037.91;5094947;28;20075;-78
2021/05/21 07:40:48;;;;;;;30.00;8.27;;;13.20;99.90;;;13.52;73.20;100049.25;5095154;28;20044;-79
2021/05/21 07:43:17;;;;;;;34.65;8.10;;;13.20;99.90;;;13.51;72.00;100068.75;5076595;28;20711;-76
2021/05/21 07:45:45;;;;;;;28.33;8.07;;;13.30;99.90;;;13.51;71.20;100055.47;5095304;28;20448;-79
2021/05/21 07:48:13;;;;;;;32.85;7.60;;;13.30;99.90;;;13.52;71.25;100043.06;5094807;28;20052;-76
2021/05/21 07:50:41;;;;;;;31.33;7.40;;;13.20;99.90;;;13.38;71.18;100035.50;5094681;28;20055;-77
2021/05/21 07:53:10;;;;;;;30.30;6.95;;;13.20;99.90;;;13.22;71.92;100018.25;5076556;28;20048;-73
2021/05/21 07:55:39;;;;;;;28.58;7.57;;;13.00;99.90;;;13.27;71.60;100034.94;5076273;28;20578;-77
2021/05/21 07:58:07;;;;;;;28.67;7.97;;;13.00;99.90;;;13.38;71.79;100034.59;5076386;28;20102;-72
2021/05/21 08:00:35;;;;;;;29.10;8.05;;;13.10;99.90;;;13.36;71.75;100037.31;5094553;28;20040;-74
2021/05/21 08:03:04;;;;;;;30.20;7.53;;;13.10;99.90;;;13.44;71.81;100042.41;5094108;28;20047;-75
2021/05/21 08:05:33;;;;;;;32.28;7.03;;;13.10;99.90;;;13.29;70.39;100070.28;5094186;28;20135;-75
2021/05/21 08:08:21;;;;;;;26.25;7.60;;;13.10;99.90;;;13.38;71.31;100046.13;5094462;28;20443;-81
2021/05/21 08:10:50;;;;;;;26.15;7.53;;;13.10;99.90;;;13.40;71.09;100032.78;5094379;28;20468;-81
2021/05/21 08:13:19;;;;;;;27.85;7.28;;;13.20;99.90;;;13.37;70.82;100033.75;5093980;28;20055;-82
2021/05/21 08:15:47;;;;;;;23.10;7.22;;;13.20;99.90;;;13.45;70.86;100028.22;5094366;28;20044;-81
2021/05/21 08:18:16;;;;;;;27.90;7.60;;;13.20;99.90;;;13.52;71.22;100051.91;5094272;28;20417;-81
2021/05/21 08:20:45;;;;;;;25.83;8.00;;;13.30;99.90;;;13.65;71.64;100049.72;5094125;28;20047;-82
2021/05/21 08:23:14;;;;;;;27.33;7.90;;;13.30;99.90;;;13.55;71.90;100053.56;5075966;28;20044;-82
2021/05/21 08:25:44;;;;;;;26.27;8.07;;;13.40;99.90;;;13.53;72.67;100061.59;5094040;28;20044;-82
2021/05/21 08:28:13;;;;;;;29.23;8.70;;;13.30;99.90;;;13.63;72.74;100034.78;5093860;28;20044;-82
2021/05/21 08:30:41;;;;;;;25.75;8.25;;;13.30;99.90;;;13.67;72.57;100039.06;5094015;28;20055;-82
2021/05/21 08:33:10;;;;;;;29.48;7.63;;;13.40;99.90;;;13.76;71.50;100037.00;5093953;28;20115;-82
2021/05/21 08:35:38;;;;;;;23.85;7.45;;;13.50;99.90;;;13.67;70.19;100047.03;5094362;28;20050;-82
2021/05/21 08:38:06;;;;;;;25.25;7.25;;;13.50;99.90;;;13.70;70.25;100046.94;5093867;28;20059;-81
2021/05/21 08:40:37;;;;;;;30.52;7.97;;;13.40;99.90;;;13.58;70.38;100033.13;5093826;28;20044;-82
2021/05/21 08:43:09;;;;;;;31.73;8.32;;;13.40;99.90;;;13.52;71.62;100029.75;5059813;28;20054;-81
2021/05/21 08:45:38;;;;;;;22.10;6.57;;;13.30;99.90;;;13.40;71.57;100038.09;5093887;28;20050;-81
2021/05/21 08:48:13;;;;;;;27.55;7.50;;;13.20;99.90;;;13.42;71.41;100023.84;5093912;28;20075;-79
2021/05/21 08:50:42;;;;;;;23.65;8.02;;;13.20;99.90;;;13.50;71.30;100011.22;5075718;28;20536;-82
2021/05/21 08:53:11;;;;;;;24.50;7.38;;;13.20;99.90;;;13.52;70.89;100014.69;5093711;28;20036;-82
2021/05/21 08:55:39;;;;;;;24.15;7.43;;;13.30;99.90;;;13.54;70.34;100046.53;5093746;28;20085;-82
2021/05/21 08:58:12;;;;;;;27.33;8.75;;;13.30;99.90;;;13.66;70.46;100018.72;5094104;28;20493;-80
2021/05/21 09:00:40;;;;;;;23.05;7.63;;;13.40;99.90;;;13.64;69.70;100036.50;5093858;28;20081;-82
2021/05/21 09:03:22;;;;;;;22.88;8.00;;;13.40;99.90;;;13.75;70.96;100042.34;5094054;28;20054;-81
2021/05/21 09:06:14;;;;;;;27.70;7.60;;;13.40;99.90;;;13.83;69.77;100029.69;5093256;28;20444;-82
2021/05/21 09:08:46;;;;;;;23.98;7.60;;;13.50;99.90;;;14.06;69.81;100038.69;5093756;28;20058;-82
2021/05/21 09:11:27;;;;;;;24.70;7.50;;;13.80;99.90;;;14.35;69.88;100030.69;5093637;28;20127;-81
2021/05/21 09:14:03;;;;;;;22.65;7.85;;;14.00;99.90;;;14.45;67.49;100029.47;5093767;28;20060;-82
2021/05/21 09:16:34;;;;;;;23.35;7.22;;;14.20;99.90;;;14.55;67.05;100023.81;5093353;28;20442;-82
2021/05/21 09:19:06;;;;;;;24.15;6.68;;;14.30;99.90;;;14.34;66.66;100052.03;5093042;28;20485;-82
2021/05/21 09:22:00;;;;;;;22.65;7.20;;;14.20;99.90;;;14.38;67.53;100077.59;5093129;28;20436;-82
2021/05/21 09:24:33;;;;;;;25.17;7.00;;;14.10;99.90;;;14.43;67.41;100028.63;5093071;28;20044;-82
2021/05/21 09:27:02;;;;;;;25.65;7.55;;;14.20;99.90;;;14.54;66.71;100012.28;5092917;28;20044;-82
2021/05/21 09:29:43;;;;;;;29.45;7.10;;;14.30;99.90;;;14.71;67.08;100036.53;5093100;28;20105;-81
2021/05/21 09:32:24;;;;;;;23.73;7.03;;;14.40;99.90;;;14.64;65.62;100024.38;5092975;28;20065;-82
2021/05/21 09:35:01;;;;;;;28.35;7.93;;;14.40;99.90;;;14.95;66.11;100029.47;5092824;28;20055;-82
2021/05/21 09:37:29;;;;;;;24.15;6.95;;;14.60;99.90;;;15.09;64.84;100011.22;5093063;28;20451;-82
2021/05/21 09:40:05;;;;;;;21.17;6.32;;;14.80;99.90;;;15.10;63.80;100007.63;5095876;28;20397;-82
2021/05/21 09:43:01;;;;;;;25.35;6.45;;;14.80;99.90;;;15.23;62.40;99983.13;5096978;28;20097;-82
2021/05/21 09:45:33;;;;;;;21.95;6.20;;;14.90;99.90;;;15.29;61.86;100014.88;5050900;28;20070;-82
2021/05/21 09:48:04;;;;;;;22.98;6.45;;;15.10;99.90;;;15.24;61.28;99970.69;5097251;28;20043;-81
2021/05/21 09:50:41;;;;;;;24.17;7.15;;;15.10;99.90;;;15.34;61.48;99986.28;5097120;28;20044;-82
2021/05/21 09:53:13;;;;;;;20.98;6.72;;;15.10;99.90;;;15.15;60.68;99990.56;5097278;28;20043;-82
2021/05/21 09:55:50;;;;;;;25.75;7.35;;;14.90;99.90;;;15.07;62.08;100005.97;5096673;28;20055;-82
2021/05/21 09:58:29;;;;;;;28.05;7.57;;;14.80;99.90;;;15.15;63.04;100014.53;5096762;28;20050;-82
2021/05/21 10:01:14;;;;;;;22.55;6.82;;;14.90;99.90;;;15.44;63.31;99986.84;5097111;28;20055;-82
2021/05/21 10:03:44;;;;;;;26.38;6.85;;;15.10;99.90;;;15.74;63.35;99995.41;5096834;28;20072;-81
2021/05/21 10:06:13;;;;;;;;;;;15.40;99.90;;;15.41;61.77;100012.69;5096936;28;20051;-82
2021/05/21 10:08:43;;;;;;;27.02;6.55;;;15.20;99.90;;;15.30;62.35;100011.31;5096755;28;19924;-83
2021/05/21 10:11:12;;;;;;;23.10;6.50;;;15.10;99.90;;;15.21;61.07;100022.28;5096980;28;20063;-82
2021/05/21 10:13:42;;;;;;;22.95;6.68;;;15.00;99.90;;;15.15;61.40;100017.22;5096635;28;20048;-82
2021/05/21 10:16:12;;;;;;;21.17;6.50;;;14.90;99.90;;;15.11;63.69;100036.00;5096941;28;20420;-83
2021/05/21 10:18:44;;;;;;;21.58;5.82;;;14.90;99.90;;;14.87;63.66;100035.09;5096599;28;20071;-83